sensor_id;sensor_type;location;lat;lon;timestamp;P1;durP1;ratioP1;P2;durP2;ratioP2
76850;SDS011;65824;43.726;20.692;2024-01-30T00:01:56;44.85;;;22.63;;
76850;SDS011;65824;43.726;20.692;2024-01-30T00:04:21;47.30;;;21.95;;
76850;SDS011;65824;43.726;20.692;2024-01-30T00:06:47;39.30;;;19.55;;
76850;SDS011;65824;43.726;20.692;2024-01-30T00:09:12;36.22;;;16.75;;
76850;SDS011;65824;43.726;20.692;2024-01-30T00:11:38;35.38;;;15.57;;
76850;SDS011;65824;43.726;20.692;2024-01-30T00:14:04;34.88;;;15.55;;
76850;SDS011;65824;43.726;20.692;2024-01-30T00:16:30;36.28;;;16.65;;
76850;SDS011;65824;43.726;20.692;2024-01-30T00:18:55;30.35;;;15.57;;
76850;SDS011;65824;43.726;20.692;2024-01-30T00:21:21;33.85;;;14.90;;
76850;SDS011;65824;43.726;20.692;2024-01-30T00:23:47;37.05;;;15.23;;
76850;SDS011;65824;43.726;20.692;2024-01-30T00:26:12;34.40;;;15.15;;
76850;SDS011;65824;43.726;20.692;2024-01-30T00:28:40;32.20;;;15.05;;
76850;SDS011;65824;43.726;20.692;2024-01-30T00:31:05;36.78;;;15.63;;
76850;SDS011;65824;43.726;20.692;2024-01-30T00:33:31;36.25;;;15.73;;
76850;SDS011;65824;43.726;20.692;2024-01-30T00:35:56;32.55;;;15.95;;
76850;SDS011;65824;43.726;20.692;2024-01-30T00:38:22;36.55;;;16.23;;
76850;SDS011;65824;43.726;20.692;2024-01-30T00:40:48;39.05;;;17.88;;
76850;SDS011;65824;43.726;20.692;2024-01-30T00:43:14;39.63;;;17.65;;
76850;SDS011;65824;43.726;20.692;2024-01-30T00:45:40;40.67;;;18.55;;
76850;SDS011;65824;43.726;20.692;2024-01-30T00:48:07;42.08;;;21.30;;
76850;SDS011;65824;43.726;20.692;2024-01-30T00:50:32;53.47;;;23.45;;
76850;SDS011;65824;43.726;20.692;2024-01-30T00:52:58;56.72;;;25.02;;
76850;SDS011;65824;43.726;20.692;2024-01-30T00:55:23;58.83;;;27.67;;
76850;SDS011;65824;43.726;20.692;2024-01-30T00:57:49;63.20;;;30.33;;
76850;SDS011;65824;43.726;20.692;2024-01-30T01:00:14;62.05;;;29.42;;
76850;SDS011;65824;43.726;20.692;2024-01-30T01:02:43;56.38;;;27.20;;
76850;SDS011;65824;43.726;20.692;2024-01-30T01:05:10;62.67;;;28.52;;
76850;SDS011;65824;43.726;20.692;2024-01-30T01:07:37;53.72;;;25.95;;
76850;SDS011;65824;43.726;20.692;2024-01-30T01:10:03;54.25;;;27.73;;
76850;SDS011;65824;43.726;20.692;2024-01-30T01:12:28;58.13;;;26.15;;
76850;SDS011;65824;43.726;20.692;2024-01-30T01:14:54;54.88;;;25.83;;
76850;SDS011;65824;43.726;20.692;2024-01-30T01:17:21;54.85;;;24.98;;
76850;SDS011;65824;43.726;20.692;2024-01-30T01:19:47;52.95;;;24.10;;
76850;SDS011;65824;43.726;20.692;2024-01-30T01:22:13;59.13;;;25.70;;
76850;SDS011;65824;43.726;20.692;2024-01-30T01:24:39;56.97;;;26.50;;
76850;SDS011;65824;43.726;20.692;2024-01-30T01:27:05;53.10;;;25.52;;
76850;SDS011;65824;43.726;20.692;2024-01-30T01:29:31;50.25;;;23.45;;
76850;SDS011;65824;43.726;20.692;2024-01-30T01:31:57;49.42;;;22.85;;
76850;SDS011;65824;43.726;20.692;2024-01-30T01:34:23;45.00;;;22.63;;
76850;SDS011;65824;43.726;20.692;2024-01-30T01:36:49;45.40;;;21.20;;
76850;SDS011;65824;43.726;20.692;2024-01-30T01:39:14;43.30;;;21.42;;
76850;SDS011;65824;43.726;20.692;2024-01-30T01:41:40;52.33;;;21.88;;
76850;SDS011;65824;43.726;20.692;2024-01-30T01:44:08;42.00;;;20.00;;
76850;SDS011;65824;43.726;20.692;2024-01-30T01:46:34;46.13;;;20.38;;
76850;SDS011;65824;43.726;20.692;2024-01-30T01:49:03;44.75;;;20.23;;
76850;SDS011;65824;43.726;20.692;2024-01-30T01:51:30;45.75;;;19.85;;
76850;SDS011;65824;43.726;20.692;2024-01-30T01:53:57;45.42;;;20.42;;
76850;SDS011;65824;43.726;20.692;2024-01-30T01:56:25;44.35;;;19.98;;
76850;SDS011;65824;43.726;20.692;2024-01-30T01:58:54;41.42;;;19.73;;
76850;SDS011;65824;43.726;20.692;2024-01-30T02:01:20;47.35;;;21.42;;
76850;SDS011;65824;43.726;20.692;2024-01-30T02:03:46;43.88;;;20.65;;
76850;SDS011;65824;43.726;20.692;2024-01-30T02:06:12;47.03;;;20.58;;
76850;SDS011;65824;43.726;20.692;2024-01-30T02:08:38;47.25;;;21.70;;
76850;SDS011;65824;43.726;20.692;2024-01-30T02:11:05;49.08;;;22.40;;
76850;SDS011;65824;43.726;20.692;2024-01-30T02:13:31;48.03;;;21.33;;
76850;SDS011;65824;43.726;20.692;2024-01-30T02:15:56;48.67;;;21.67;;
76850;SDS011;65824;43.726;20.692;2024-01-30T02:18:22;44.97;;;22.20;;
76850;SDS011;65824;43.726;20.692;2024-01-30T02:20:47;50.30;;;22.58;;
76850;SDS011;65824;43.726;20.692;2024-01-30T02:23:13;46.17;;;22.48;;
76850;SDS011;65824;43.726;20.692;2024-01-30T02:25:40;49.08;;;22.63;;
76850;SDS011;65824;43.726;20.692;2024-01-30T02:28:10;51.47;;;22.80;;
76850;SDS011;65824;43.726;20.692;2024-01-30T02:30:37;47.53;;;22.77;;
76850;SDS011;65824;43.726;20.692;2024-01-30T02:33:02;46.78;;;23.35;;
76850;SDS011;65824;43.726;20.692;2024-01-30T02:35:28;47.08;;;22.40;;
76850;SDS011;65824;43.726;20.692;2024-01-30T02:37:53;53.72;;;23.70;;
76850;SDS011;65824;43.726;20.692;2024-01-30T02:40:19;52.85;;;23.67;;
76850;SDS011;65824;43.726;20.692;2024-01-30T02:42:44;49.22;;;22.98;;
76850;SDS011;65824;43.726;20.692;2024-01-30T02:45:10;49.67;;;23.73;;
76850;SDS011;65824;43.726;20.692;2024-01-30T02:47:36;61.22;;;24.40;;
76850;SDS011;65824;43.726;20.692;2024-01-30T02:50:01;51.65;;;24.42;;
76850;SDS011;65824;43.726;20.692;2024-01-30T02:52:27;52.05;;;24.67;;
76850;SDS011;65824;43.726;20.692;2024-01-30T02:54:52;62.35;;;27.42;;
76850;SDS011;65824;43.726;20.692;2024-01-30T02:57:18;56.00;;;26.10;;
76850;SDS011;65824;43.726;20.692;2024-01-30T02:59:44;64.60;;;26.90;;
76850;SDS011;65824;43.726;20.692;2024-01-30T03:02:10;55.15;;;24.83;;
76850;SDS011;65824;43.726;20.692;2024-01-30T03:04:36;55.92;;;25.20;;
76850;SDS011;65824;43.726;20.692;2024-01-30T03:07:02;51.08;;;23.75;;
76850;SDS011;65824;43.726;20.692;2024-01-30T03:09:28;56.95;;;25.67;;
76850;SDS011;65824;43.726;20.692;2024-01-30T03:11:54;58.53;;;26.50;;
76850;SDS011;65824;43.726;20.692;2024-01-30T03:14:20;68.97;;;28.67;;
76850;SDS011;65824;43.726;20.692;2024-01-30T03:16:45;67.93;;;27.95;;
76850;SDS011;65824;43.726;20.692;2024-01-30T03:19:10;75.07;;;30.27;;
76850;SDS011;65824;43.726;20.692;2024-01-30T03:21:36;64.72;;;29.23;;
76850;SDS011;65824;43.726;20.692;2024-01-30T03:24:02;66.97;;;28.95;;
76850;SDS011;65824;43.726;20.692;2024-01-30T03:26:28;63.83;;;28.63;;
76850;SDS011;65824;43.726;20.692;2024-01-30T03:28:54;61.78;;;26.70;;
76850;SDS011;65824;43.726;20.692;2024-01-30T03:31:19;57.20;;;25.05;;
76850;SDS011;65824;43.726;20.692;2024-01-30T03:33:45;58.67;;;27.00;;
76850;SDS011;65824;43.726;20.692;2024-01-30T03:36:10;58.53;;;26.60;;
76850;SDS011;65824;43.726;20.692;2024-01-30T03:38:36;60.08;;;24.77;;
76850;SDS011;65824;43.726;20.692;2024-01-30T03:41:01;54.50;;;25.40;;
76850;SDS011;65824;43.726;20.692;2024-01-30T03:43:27;57.42;;;25.35;;
76850;SDS011;65824;43.726;20.692;2024-01-30T03:45:52;57.95;;;26.55;;
76850;SDS011;65824;43.726;20.692;2024-01-30T03:48:18;56.63;;;24.75;;
76850;SDS011;65824;43.726;20.692;2024-01-30T03:50:44;51.55;;;23.75;;
76850;SDS011;65824;43.726;20.692;2024-01-30T03:53:09;52.30;;;23.60;;
76850;SDS011;65824;43.726;20.692;2024-01-30T03:55:35;52.30;;;24.27;;
76850;SDS011;65824;43.726;20.692;2024-01-30T03:58:01;51.80;;;22.67;;
76850;SDS011;65824;43.726;20.692;2024-01-30T04:00:27;52.03;;;24.02;;
76850;SDS011;65824;43.726;20.692;2024-01-30T04:02:54;49.95;;;24.10;;
76850;SDS011;65824;43.726;20.692;2024-01-30T04:05:20;54.45;;;25.73;;
76850;SDS011;65824;43.726;20.692;2024-01-30T04:07:45;55.60;;;25.83;;
76850;SDS011;65824;43.726;20.692;2024-01-30T04:10:11;54.75;;;25.75;;
76850;SDS011;65824;43.726;20.692;2024-01-30T04:12:38;59.22;;;25.65;;
76850;SDS011;65824;43.726;20.692;2024-01-30T04:15:04;50.47;;;24.05;;
76850;SDS011;65824;43.726;20.692;2024-01-30T04:17:31;56.45;;;23.83;;
76850;SDS011;65824;43.726;20.692;2024-01-30T04:19:57;51.90;;;23.13;;
76850;SDS011;65824;43.726;20.692;2024-01-30T04:22:23;48.85;;;22.20;;
76850;SDS011;65824;43.726;20.692;2024-01-30T04:24:49;48.25;;;22.83;;
76850;SDS011;65824;43.726;20.692;2024-01-30T04:27:15;47.22;;;22.10;;
76850;SDS011;65824;43.726;20.692;2024-01-30T04:29:42;48.13;;;22.63;;
76850;SDS011;65824;43.726;20.692;2024-01-30T04:32:07;50.60;;;22.20;;
76850;SDS011;65824;43.726;20.692;2024-01-30T04:34:34;52.88;;;21.70;;
76850;SDS011;65824;43.726;20.692;2024-01-30T04:36:59;41.30;;;19.67;;
76850;SDS011;65824;43.726;20.692;2024-01-30T04:39:25;39.78;;;20.17;;
76850;SDS011;65824;43.726;20.692;2024-01-30T04:41:50;44.55;;;21.50;;
76850;SDS011;65824;43.726;20.692;2024-01-30T04:44:16;47.47;;;21.63;;
76850;SDS011;65824;43.726;20.692;2024-01-30T04:46:41;49.85;;;23.25;;
76850;SDS011;65824;43.726;20.692;2024-01-30T04:49:07;55.55;;;24.25;;
76850;SDS011;65824;43.726;20.692;2024-01-30T04:51:33;51.85;;;23.75;;
76850;SDS011;65824;43.726;20.692;2024-01-30T04:53:58;54.17;;;25.85;;
76850;SDS011;65824;43.726;20.692;2024-01-30T04:56:24;57.45;;;27.67;;
76850;SDS011;65824;43.726;20.692;2024-01-30T04:58:49;56.28;;;27.40;;
76850;SDS011;65824;43.726;20.692;2024-01-30T05:01:18;68.13;;;28.20;;
76850;SDS011;65824;43.726;20.692;2024-01-30T05:03:43;61.85;;;27.48;;
76850;SDS011;65824;43.726;20.692;2024-01-30T05:06:09;60.42;;;28.77;;
76850;SDS011;65824;43.726;20.692;2024-01-30T05:08:34;55.03;;;26.80;;
76850;SDS011;65824;43.726;20.692;2024-01-30T05:11:03;51.55;;;24.65;;
76850;SDS011;65824;43.726;20.692;2024-01-30T05:13:34;60.70;;;26.50;;
76850;SDS011;65824;43.726;20.692;2024-01-30T05:16:01;53.50;;;25.00;;
76850;SDS011;65824;43.726;20.692;2024-01-30T05:18:28;54.08;;;24.48;;
76850;SDS011;65824;43.726;20.692;2024-01-30T05:20:53;54.72;;;24.50;;
76850;SDS011;65824;43.726;20.692;2024-01-30T05:23:19;48.75;;;23.85;;
76850;SDS011;65824;43.726;20.692;2024-01-30T05:25:45;53.05;;;24.42;;
76850;SDS011;65824;43.726;20.692;2024-01-30T05:28:10;69.93;;;34.22;;
76850;SDS011;65824;43.726;20.692;2024-01-30T05:30:36;83.22;;;37.22;;
76850;SDS011;65824;43.726;20.692;2024-01-30T05:33:01;94.18;;;42.22;;
76850;SDS011;65824;43.726;20.692;2024-01-30T05:35:28;101.97;;;44.53;;
76850;SDS011;65824;43.726;20.692;2024-01-30T05:37:53;111.60;;;45.78;;
76850;SDS011;65824;43.726;20.692;2024-01-30T05:40:18;108.25;;;45.38;;
76850;SDS011;65824;43.726;20.692;2024-01-30T05:42:44;98.05;;;44.78;;
76850;SDS011;65824;43.726;20.692;2024-01-30T05:45:10;106.63;;;47.10;;
76850;SDS011;65824;43.726;20.692;2024-01-30T05:47:35;104.22;;;46.20;;
76850;SDS011;65824;43.726;20.692;2024-01-30T05:50:01;100.80;;;43.55;;
76850;SDS011;65824;43.726;20.692;2024-01-30T05:52:26;92.13;;;40.38;;
76850;SDS011;65824;43.726;20.692;2024-01-30T05:54:53;87.18;;;35.97;;
76850;SDS011;65824;43.726;20.692;2024-01-30T05:57:18;112.93;;;43.25;;
76850;SDS011;65824;43.726;20.692;2024-01-30T05:59:44;109.60;;;41.78;;
76850;SDS011;65824;43.726;20.692;2024-01-30T06:02:13;96.28;;;42.67;;
76850;SDS011;65824;43.726;20.692;2024-01-30T06:04:38;102.30;;;44.58;;
76850;SDS011;65824;43.726;20.692;2024-01-30T06:07:04;101.05;;;43.42;;
76850;SDS011;65824;43.726;20.692;2024-01-30T06:09:32;96.38;;;39.40;;
76850;SDS011;65824;43.726;20.692;2024-01-30T06:11:58;82.95;;;37.35;;
76850;SDS011;65824;43.726;20.692;2024-01-30T06:14:25;87.88;;;36.65;;
76850;SDS011;65824;43.726;20.692;2024-01-30T06:16:51;89.63;;;36.80;;
76850;SDS011;65824;43.726;20.692;2024-01-30T06:19:20;86.78;;;37.72;;
76850;SDS011;65824;43.726;20.692;2024-01-30T06:21:45;79.50;;;35.63;;
76850;SDS011;65824;43.726;20.692;2024-01-30T06:24:11;75.35;;;34.60;;
76850;SDS011;65824;43.726;20.692;2024-01-30T06:26:38;71.28;;;30.77;;
76850;SDS011;65824;43.726;20.692;2024-01-30T06:29:03;81.28;;;33.05;;
76850;SDS011;65824;43.726;20.692;2024-01-30T06:31:29;77.88;;;33.67;;
76850;SDS011;65824;43.726;20.692;2024-01-30T06:33:54;70.93;;;31.73;;
76850;SDS011;65824;43.726;20.692;2024-01-30T06:36:19;79.30;;;31.25;;
76850;SDS011;65824;43.726;20.692;2024-01-30T06:38:46;68.13;;;30.95;;
76850;SDS011;65824;43.726;20.692;2024-01-30T06:41:12;67.70;;;30.58;;
76850;SDS011;65824;43.726;20.692;2024-01-30T06:43:38;61.80;;;29.33;;
76850;SDS011;65824;43.726;20.692;2024-01-30T06:46:03;53.53;;;26.35;;
76850;SDS011;65824;43.726;20.692;2024-01-30T06:48:29;58.28;;;27.52;;
76850;SDS011;65824;43.726;20.692;2024-01-30T06:50:55;55.22;;;26.55;;
76850;SDS011;65824;43.726;20.692;2024-01-30T06:53:22;56.65;;;26.77;;
76850;SDS011;65824;43.726;20.692;2024-01-30T06:55:48;61.53;;;28.83;;
76850;SDS011;65824;43.726;20.692;2024-01-30T06:58:14;90.65;;;40.65;;
76850;SDS011;65824;43.726;20.692;2024-01-30T07:00:40;109.57;;;48.53;;
76850;SDS011;65824;43.726;20.692;2024-01-30T07:03:05;113.47;;;49.63;;
76850;SDS011;65824;43.726;20.692;2024-01-30T07:05:31;128.40;;;55.58;;
76850;SDS011;65824;43.726;20.692;2024-01-30T07:07:57;151.05;;;61.58;;
76850;SDS011;65824;43.726;20.692;2024-01-30T07:10:23;148.60;;;63.97;;
76850;SDS011;65824;43.726;20.692;2024-01-30T07:12:48;158.27;;;69.38;;
76850;SDS011;65824;43.726;20.692;2024-01-30T07:15:14;151.85;;;65.70;;
76850;SDS011;65824;43.726;20.692;2024-01-30T07:17:43;152.00;;;69.00;;
76850;SDS011;65824;43.726;20.692;2024-01-30T07:20:09;148.80;;;64.28;;
76850;SDS011;65824;43.726;20.692;2024-01-30T07:22:35;152.88;;;62.78;;
76850;SDS011;65824;43.726;20.692;2024-01-30T07:25:02;135.82;;;58.88;;
76850;SDS011;65824;43.726;20.692;2024-01-30T07:27:27;143.95;;;60.55;;
76850;SDS011;65824;43.726;20.692;2024-01-30T07:29:56;120.00;;;51.65;;
76850;SDS011;65824;43.726;20.692;2024-01-30T07:32:22;116.22;;;51.42;;
76850;SDS011;65824;43.726;20.692;2024-01-30T07:34:48;114.63;;;52.50;;
76850;SDS011;65824;43.726;20.692;2024-01-30T07:37:15;140.82;;;58.70;;
76850;SDS011;65824;43.726;20.692;2024-01-30T07:39:41;119.93;;;53.50;;
76850;SDS011;65824;43.726;20.692;2024-01-30T07:42:09;98.70;;;47.40;;
76850;SDS011;65824;43.726;20.692;2024-01-30T07:44:34;92.78;;;42.33;;
76850;SDS011;65824;43.726;20.692;2024-01-30T07:47:00;113.80;;;52.30;;
76850;SDS011;65824;43.726;20.692;2024-01-30T07:49:25;95.47;;;45.03;;
76850;SDS011;65824;43.726;20.692;2024-01-30T07:51:51;87.40;;;39.25;;
76850;SDS011;65824;43.726;20.692;2024-01-30T07:54:17;86.47;;;40.45;;
76850;SDS011;65824;43.726;20.692;2024-01-30T07:56:42;86.63;;;40.80;;
76850;SDS011;65824;43.726;20.692;2024-01-30T07:59:11;90.20;;;45.75;;
76850;SDS011;65824;43.726;20.692;2024-01-30T08:01:37;84.78;;;41.40;;
76850;SDS011;65824;43.726;20.692;2024-01-30T08:04:03;94.45;;;44.40;;
76850;SDS011;65824;43.726;20.692;2024-01-30T08:06:30;97.22;;;45.85;;
76850;SDS011;65824;43.726;20.692;2024-01-30T08:08:56;104.57;;;47.22;;
76850;SDS011;65824;43.726;20.692;2024-01-30T08:11:22;99.05;;;46.42;;
76850;SDS011;65824;43.726;20.692;2024-01-30T08:13:52;99.53;;;47.40;;
76850;SDS011;65824;43.726;20.692;2024-01-30T08:16:19;103.38;;;50.03;;
76850;SDS011;65824;43.726;20.692;2024-01-30T08:18:45;119.38;;;57.47;;
76850;SDS011;65824;43.726;20.692;2024-01-30T08:21:10;109.32;;;50.47;;
76850;SDS011;65824;43.726;20.692;2024-01-30T08:23:38;106.32;;;49.72;;
76850;SDS011;65824;43.726;20.692;2024-01-30T08:26:05;96.47;;;46.30;;
76850;SDS011;65824;43.726;20.692;2024-01-30T08:28:30;89.40;;;44.15;;
76850;SDS011;65824;43.726;20.692;2024-01-30T08:30:56;94.25;;;43.45;;
76850;SDS011;65824;43.726;20.692;2024-01-30T08:33:22;90.25;;;43.55;;
76850;SDS011;65824;43.726;20.692;2024-01-30T08:35:48;91.43;;;45.90;;
76850;SDS011;65824;43.726;20.692;2024-01-30T08:38:13;102.93;;;49.67;;
76850;SDS011;65824;43.726;20.692;2024-01-30T08:40:40;104.78;;;50.65;;
76850;SDS011;65824;43.726;20.692;2024-01-30T08:43:05;114.00;;;53.40;;
76850;SDS011;65824;43.726;20.692;2024-01-30T08:45:31;101.25;;;49.88;;
76850;SDS011;65824;43.726;20.692;2024-01-30T08:47:57;104.03;;;49.13;;
76850;SDS011;65824;43.726;20.692;2024-01-30T08:50:23;103.50;;;48.97;;
76850;SDS011;65824;43.726;20.692;2024-01-30T08:52:49;101.22;;;51.45;;
76850;SDS011;65824;43.726;20.692;2024-01-30T08:55:14;104.18;;;49.38;;
76850;SDS011;65824;43.726;20.692;2024-01-30T08:57:40;96.38;;;48.50;;
76850;SDS011;65824;43.726;20.692;2024-01-30T09:00:06;89.53;;;46.40;;
76850;SDS011;65824;43.726;20.692;2024-01-30T09:02:34;97.88;;;46.60;;
76850;SDS011;65824;43.726;20.692;2024-01-30T09:04:59;89.40;;;46.78;;
76850;SDS011;65824;43.726;20.692;2024-01-30T09:07:25;100.88;;;46.92;;
76850;SDS011;65824;43.726;20.692;2024-01-30T09:09:50;91.28;;;46.95;;
76850;SDS011;65824;43.726;20.692;2024-01-30T09:12:16;105.20;;;52.38;;
76850;SDS011;65824;43.726;20.692;2024-01-30T09:14:41;97.07;;;48.85;;
76850;SDS011;65824;43.726;20.692;2024-01-30T09:17:07;100.32;;;49.47;;
76850;SDS011;65824;43.726;20.692;2024-01-30T09:19:34;92.25;;;47.35;;
76850;SDS011;65824;43.726;20.692;2024-01-30T09:21:59;92.40;;;46.28;;
76850;SDS011;65824;43.726;20.692;2024-01-30T09:24:26;83.70;;;45.05;;
76850;SDS011;65824;43.726;20.692;2024-01-30T09:26:51;82.30;;;42.72;;
76850;SDS011;65824;43.726;20.692;2024-01-30T09:29:17;99.85;;;46.72;;
76850;SDS011;65824;43.726;20.692;2024-01-30T09:31:43;103.78;;;49.33;;
76850;SDS011;65824;43.726;20.692;2024-01-30T09:34:11;93.88;;;43.97;;
76850;SDS011;65824;43.726;20.692;2024-01-30T09:36:37;76.70;;;37.58;;
76850;SDS011;65824;43.726;20.692;2024-01-30T09:39:02;56.80;;;28.23;;
76850;SDS011;65824;43.726;20.692;2024-01-30T09:41:29;56.78;;;30.20;;
76850;SDS011;65824;43.726;20.692;2024-01-30T09:43:58;58.20;;;30.48;;
76850;SDS011;65824;43.726;20.692;2024-01-30T09:46:27;55.63;;;29.10;;
76850;SDS011;65824;43.726;20.692;2024-01-30T09:48:53;54.80;;;28.70;;
76850;SDS011;65824;43.726;20.692;2024-01-30T09:51:20;45.63;;;23.35;;
76850;SDS011;65824;43.726;20.692;2024-01-30T09:53:46;47.60;;;24.33;;
76850;SDS011;65824;43.726;20.692;2024-01-30T09:56:14;42.30;;;22.90;;
76850;SDS011;65824;43.726;20.692;2024-01-30T09:58:40;42.47;;;23.60;;
76850;SDS011;65824;43.726;20.692;2024-01-30T10:01:07;42.25;;;22.83;;
76850;SDS011;65824;43.726;20.692;2024-01-30T10:03:32;45.33;;;24.40;;
76850;SDS011;65824;43.726;20.692;2024-01-30T10:05:58;48.05;;;24.45;;
76850;SDS011;65824;43.726;20.692;2024-01-30T10:08:23;34.72;;;20.15;;
76850;SDS011;65824;43.726;20.692;2024-01-30T10:10:50;37.20;;;20.23;;
76850;SDS011;65824;43.726;20.692;2024-01-30T10:13:17;37.70;;;19.70;;
76850;SDS011;65824;43.726;20.692;2024-01-30T10:15:42;35.10;;;20.42;;
76850;SDS011;65824;43.726;20.692;2024-01-30T10:18:08;36.03;;;19.50;;
76850;SDS011;65824;43.726;20.692;2024-01-30T10:20:35;42.15;;;22.05;;
76850;SDS011;65824;43.726;20.692;2024-01-30T10:23:01;31.50;;;18.17;;
76850;SDS011;65824;43.726;20.692;2024-01-30T10:25:27;27.88;;;14.13;;
76850;SDS011;65824;43.726;20.692;2024-01-30T10:27:54;25.67;;;13.95;;
76850;SDS011;65824;43.726;20.692;2024-01-30T10:30:20;27.77;;;12.95;;
76850;SDS011;65824;43.726;20.692;2024-01-30T10:32:50;19.63;;;10.73;;
76850;SDS011;65824;43.726;20.692;2024-01-30T10:35:17;27.33;;;12.88;;
76850;SDS011;65824;43.726;20.692;2024-01-30T10:37:43;20.10;;;12.15;;
76850;SDS011;65824;43.726;20.692;2024-01-30T10:40:09;18.05;;;10.20;;
76850;SDS011;65824;43.726;20.692;2024-01-30T10:42:38;23.98;;;11.63;;
76850;SDS011;65824;43.726;20.692;2024-01-30T10:45:11;17.27;;;10.05;;
76850;SDS011;65824;43.726;20.692;2024-01-30T10:47:43;21.02;;;10.25;;
76850;SDS011;65824;43.726;20.692;2024-01-30T10:50:28;21.67;;;10.55;;
76850;SDS011;65824;43.726;20.692;2024-01-30T10:52:56;19.30;;;10.60;;
76850;SDS011;65824;43.726;20.692;2024-01-30T10:55:22;28.02;;;14.63;;
76850;SDS011;65824;43.726;20.692;2024-01-30T10:57:49;21.10;;;11.60;;
76850;SDS011;65824;43.726;20.692;2024-01-30T11:00:15;27.15;;;14.48;;
76850;SDS011;65824;43.726;20.692;2024-01-30T11:02:41;56.50;;;22.23;;
76850;SDS011;65824;43.726;20.692;2024-01-30T11:05:09;48.67;;;22.52;;
76850;SDS011;65824;43.726;20.692;2024-01-30T11:07:35;18.23;;;9.88;;
76850;SDS011;65824;43.726;20.692;2024-01-30T11:10:04;19.55;;;10.73;;
76850;SDS011;65824;43.726;20.692;2024-01-30T11:12:32;18.17;;;7.88;;
76850;SDS011;65824;43.726;20.692;2024-01-30T11:20:16;15.10;;;7.95;;
76850;SDS011;65824;43.726;20.692;2024-01-30T11:22:46;132.57;;;44.25;;
76850;SDS011;65824;43.726;20.692;2024-01-30T11:25:16;28.40;;;13.07;;
76850;SDS011;65824;43.726;20.692;2024-01-30T11:27:44;15.98;;;7.85;;
76850;SDS011;65824;43.726;20.692;2024-01-30T11:30:11;13.45;;;7.05;;
76850;SDS011;65824;43.726;20.692;2024-01-30T11:32:59;15.55;;;7.88;;
76850;SDS011;65824;43.726;20.692;2024-01-30T11:35:24;15.57;;;7.53;;
76850;SDS011;65824;43.726;20.692;2024-01-30T11:37:50;14.70;;;7.93;;
76850;SDS011;65824;43.726;20.692;2024-01-30T11:40:17;14.32;;;7.57;;
76850;SDS011;65824;43.726;20.692;2024-01-30T11:42:45;13.43;;;7.32;;
76850;SDS011;65824;43.726;20.692;2024-01-30T11:45:13;12.45;;;5.90;;
76850;SDS011;65824;43.726;20.692;2024-01-30T11:47:39;12.75;;;6.50;;
76850;SDS011;65824;43.726;20.692;2024-01-30T11:50:05;17.77;;;9.65;;
76850;SDS011;65824;43.726;20.692;2024-01-30T11:52:33;14.75;;;8.35;;
76850;SDS011;65824;43.726;20.692;2024-01-30T11:55:00;10.00;;;5.15;;
76850;SDS011;65824;43.726;20.692;2024-01-30T11:57:26;11.57;;;5.55;;
76850;SDS011;65824;43.726;20.692;2024-01-30T11:59:53;12.82;;;6.05;;
76850;SDS011;65824;43.726;20.692;2024-01-30T12:02:20;9.75;;;5.15;;
76850;SDS011;65824;43.726;20.692;2024-01-30T12:04:46;12.52;;;4.93;;
76850;SDS011;65824;43.726;20.692;2024-01-30T12:07:12;10.18;;;5.85;;
76850;SDS011;65824;43.726;20.692;2024-01-30T12:09:41;12.70;;;5.95;;
76850;SDS011;65824;43.726;20.692;2024-01-30T12:12:07;9.95;;;5.20;;
76850;SDS011;65824;43.726;20.692;2024-01-30T12:14:53;7.72;;;3.70;;
76850;SDS011;65824;43.726;20.692;2024-01-30T12:17:37;6.95;;;3.33;;
76850;SDS011;65824;43.726;20.692;2024-01-30T12:20:06;10.80;;;4.30;;
76850;SDS011;65824;43.726;20.692;2024-01-30T12:22:43;6.35;;;3.80;;
76850;SDS011;65824;43.726;20.692;2024-01-30T12:27:36;6.47;;;3.08;;
76850;SDS011;65824;43.726;20.692;2024-01-30T12:30:08;14.40;;;6.68;;
76850;SDS011;65824;43.726;20.692;2024-01-30T12:32:39;11.50;;;5.20;;
76850;SDS011;65824;43.726;20.692;2024-01-30T12:35:15;12.07;;;5.82;;
76850;SDS011;65824;43.726;20.692;2024-01-30T12:37:44;9.98;;;5.05;;
76850;SDS011;65824;43.726;20.692;2024-01-30T12:40:11;9.23;;;4.28;;
76850;SDS011;65824;43.726;20.692;2024-01-30T12:42:40;8.82;;;3.95;;
76850;SDS011;65824;43.726;20.692;2024-01-30T12:45:07;10.80;;;5.35;;
76850;SDS011;65824;43.726;20.692;2024-01-30T12:47:33;11.57;;;5.50;;
76850;SDS011;65824;43.726;20.692;2024-01-30T12:49:59;8.88;;;3.80;;
76850;SDS011;65824;43.726;20.692;2024-01-30T12:52:25;10.30;;;5.45;;
76850;SDS011;65824;43.726;20.692;2024-01-30T12:54:52;9.55;;;4.63;;
76850;SDS011;65824;43.726;20.692;2024-01-30T12:57:23;8.48;;;3.80;;
76850;SDS011;65824;43.726;20.692;2024-01-30T12:59:49;9.93;;;6.10;;
76850;SDS011;65824;43.726;20.692;2024-01-30T13:02:15;6.63;;;4.22;;
76850;SDS011;65824;43.726;20.692;2024-01-30T13:04:43;8.43;;;4.40;;
76850;SDS011;65824;43.726;20.692;2024-01-30T13:07:08;8.27;;;4.30;;
76850;SDS011;65824;43.726;20.692;2024-01-30T13:09:34;8.15;;;4.50;;
76850;SDS011;65824;43.726;20.692;2024-01-30T13:11:59;9.32;;;4.57;;
76850;SDS011;65824;43.726;20.692;2024-01-30T13:14:25;8.95;;;4.65;;
76850;SDS011;65824;43.726;20.692;2024-01-30T13:16:51;7.28;;;3.70;;
76850;SDS011;65824;43.726;20.692;2024-01-30T13:19:16;7.43;;;3.65;;
76850;SDS011;65824;43.726;20.692;2024-01-30T13:21:43;9.57;;;3.72;;
76850;SDS011;65824;43.726;20.692;2024-01-30T13:24:09;7.97;;;4.72;;
76850;SDS011;65824;43.726;20.692;2024-01-30T13:26:34;9.90;;;4.32;;
76850;SDS011;65824;43.726;20.692;2024-01-30T13:29:01;11.30;;;4.22;;
76850;SDS011;65824;43.726;20.692;2024-01-30T13:31:26;7.57;;;3.83;;
76850;SDS011;65824;43.726;20.692;2024-01-30T13:33:53;6.82;;;4.03;;
76850;SDS011;65824;43.726;20.692;2024-01-30T13:36:20;9.05;;;4.40;;
76850;SDS011;65824;43.726;20.692;2024-01-30T13:38:47;12.52;;;4.50;;
76850;SDS011;65824;43.726;20.692;2024-01-30T13:41:12;10.65;;;4.47;;
76850;SDS011;65824;43.726;20.692;2024-01-30T13:43:38;12.77;;;4.80;;
76850;SDS011;65824;43.726;20.692;2024-01-30T13:46:03;11.13;;;5.50;;
76850;SDS011;65824;43.726;20.692;2024-01-30T13:48:30;9.55;;;4.78;;
76850;SDS011;65824;43.726;20.692;2024-01-30T13:50:56;11.80;;;6.22;;
76850;SDS011;65824;43.726;20.692;2024-01-30T13:53:22;9.13;;;4.43;;
76850;SDS011;65824;43.726;20.692;2024-01-30T13:55:48;10.05;;;4.75;;
76850;SDS011;65824;43.726;20.692;2024-01-30T13:58:14;12.48;;;4.35;;
76850;SDS011;65824;43.726;20.692;2024-01-30T14:00:39;9.60;;;4.95;;
76850;SDS011;65824;43.726;20.692;2024-01-30T14:03:05;9.45;;;4.55;;
76850;SDS011;65824;43.726;20.692;2024-01-30T14:05:31;10.05;;;4.82;;
76850;SDS011;65824;43.726;20.692;2024-01-30T14:07:57;8.00;;;3.90;;
76850;SDS011;65824;43.726;20.692;2024-01-30T14:10:23;8.90;;;4.30;;
76850;SDS011;65824;43.726;20.692;2024-01-30T14:12:59;11.10;;;6.00;;
76850;SDS011;65824;43.726;20.692;2024-01-30T14:15:27;11.65;;;6.15;;